createdAt,value
2022-09-16T00:04:57.707Z,99.9
2022-09-16T00:07:00.822Z,99.9
2022-09-16T00:09:00.537Z,99.9
2022-09-16T00:11:00.268Z,99.9
2022-09-16T00:12:59.980Z,99.9
2022-09-16T00:14:59.668Z,99.9
2022-09-16T00:16:59.403Z,99.9
2022-09-16T00:18:59.127Z,99.9
2022-09-16T00:21:02.234Z,99.9
2022-09-16T00:23:01.968Z,99.9
2022-09-16T00:25:01.628Z,99.9
2022-09-16T00:27:23.370Z,99.9
2022-09-16T00:29:23.105Z,99.9
2022-09-16T00:31:22.869Z,99.9
2022-09-16T00:33:25.899Z,99.9
2022-09-16T00:35:25.613Z,99.9
2022-09-16T00:37:25.309Z,99.9
2022-09-16T00:39:25.048Z,99.9
2022-09-16T00:41:24.721Z,99.9
2022-09-16T00:43:24.436Z,99.9
2022-09-16T00:45:24.229Z,99.9
2022-09-16T00:47:27.253Z,99.9
2022-09-16T00:49:26.973Z,99.9
2022-09-16T00:51:26.640Z,99.9
2022-09-16T00:53:26.367Z,99.9
2022-09-16T00:55:26.095Z,99.9
2022-09-16T00:57:25.790Z,99.9
2022-09-16T00:59:25.487Z,99.9
2022-09-16T01:01:28.627Z,99.9
2022-09-16T01:03:28.316Z,99.9
2022-09-16T01:05:28.046Z,99.9
2022-09-16T01:07:27.713Z,99.9
2022-09-16T01:09:27.430Z,99.9
2022-09-16T01:11:27.146Z,99.9
2022-09-16T01:17:29.669Z,99.9
2022-09-16T01:19:29.373Z,99.9
2022-09-16T01:26:30.083Z,99.9
2022-09-16T01:30:32.895Z,99.9
2022-09-16T01:32:32.600Z,99.9
2022-09-16T01:34:32.295Z,99.9
2022-09-16T01:36:32.006Z,99.9
2022-09-16T01:38:31.702Z,99.9
2022-09-16T01:40:31.446Z,99.9
2022-09-16T01:42:34.557Z,99.9
2022-09-16T01:44:34.287Z,99.9
2022-09-16T01:46:34.107Z,99.9
2022-09-16T01:48:33.739Z,99.9
2022-09-16T01:50:33.441Z,99.9
2022-09-16T01:52:33.129Z,99.9
2022-09-16T01:54:32.837Z,99.9
2022-09-16T01:56:35.921Z,99.9
2022-09-16T01:58:35.698Z,99.9
2022-09-16T02:00:35.393Z,99.9
2022-09-16T02:02:35.244Z,99.9
2022-09-16T02:04:34.817Z,99.9
2022-09-16T02:06:34.529Z,99.9
2022-09-16T02:08:34.288Z,99.9
2022-09-16T02:10:37.366Z,99.9
2022-09-16T02:12:37.097Z,99.9
2022-09-16T02:14:36.832Z,99.9
2022-09-16T02:15:38.418Z,99.9
2022-09-16T02:17:38.109Z,99.9
2022-09-16T02:19:37.798Z,99.9
2022-09-16T02:21:38.341Z,99.9
2022-09-16T02:23:40.653Z,99.9
2022-09-16T02:25:40.336Z,99.9
2022-09-16T02:27:40.103Z,99.9
2022-09-16T02:29:39.793Z,99.9
2022-09-16T02:31:39.541Z,99.9
2022-09-16T02:33:39.197Z,99.9
2022-09-16T02:35:38.882Z,99.9
2022-09-16T02:37:42.003Z,99.9
2022-09-16T02:39:41.730Z,99.9
2022-09-16T02:41:41.411Z,99.9
2022-09-16T02:47:40.540Z,99.9
2022-09-16T02:49:40.243Z,99.9
2022-09-16T02:51:43.344Z,99.9
2022-09-16T02:55:44.320Z,99.9
2022-09-16T02:57:43.993Z,99.9
2022-09-16T02:59:43.682Z,99.9
2022-09-16T03:01:43.472Z,99.9
2022-09-16T03:03:43.121Z,99.9
2022-09-16T03:05:46.236Z,99.9
2022-09-16T03:07:45.940Z,99.9
2022-09-16T03:09:45.687Z,99.9
2022-09-16T03:10:47.215Z,99.9
2022-09-16T03:12:46.916Z,99.9
2022-09-16T03:14:46.642Z,99.9
2022-09-16T03:16:46.346Z,99.9
2022-09-16T03:22:48.897Z,99.9
2022-09-16T03:26:48.325Z,99.9
2022-09-16T03:28:48.028Z,99.9
2022-09-16T03:30:47.778Z,99.9
2022-09-16T03:32:50.873Z,99.9
2022-09-16T03:34:50.568Z,99.9
2022-09-16T03:36:50.318Z,99.9
2022-09-16T03:38:49.978Z,99.9
2022-09-16T03:40:49.707Z,99.9
2022-09-16T03:42:49.427Z,99.9
2022-09-16T03:46:52.282Z,99.9
2022-09-16T03:50:51.723Z,99.9
2022-09-16T03:52:51.461Z,99.9
2022-09-16T03:54:51.188Z,99.9
2022-09-16T03:56:50.908Z,99.9
2022-09-16T04:00:53.777Z,99.9
2022-09-16T04:02:53.601Z,99.9
2022-09-16T04:04:53.202Z,99.9
2022-09-16T04:07:18.826Z,99.9
2022-09-16T04:09:18.549Z,99.9
2022-09-16T04:11:18.273Z,99.9
2022-09-16T04:17:20.839Z,99.9
2022-09-16T04:19:20.573Z,99.9
2022-09-16T04:21:20.289Z,99.9
2022-09-16T04:23:19.991Z,99.9
2022-09-16T04:37:21.445Z,99.9
2022-09-16T04:39:21.182Z,99.9
2022-09-16T04:41:24.318Z,99.9
2022-09-16T04:43:24.003Z,99.9
2022-09-16T04:45:23.736Z,99.9
2022-09-16T04:47:23.461Z,99.9
2022-09-16T04:49:23.197Z,99.9
2022-09-16T04:51:22.920Z,99.9
2022-09-16T04:53:22.662Z,99.9
2022-09-16T04:55:25.815Z,99.9
2022-09-16T04:57:25.528Z,99.9
2022-09-16T04:59:25.286Z,99.9
2022-09-16T05:00:26.836Z,99.9
2022-09-16T05:02:26.556Z,99.9
2022-09-16T05:04:26.308Z,99.9
2022-09-16T05:08:29.194Z,99.9
2022-09-16T05:10:28.929Z,99.9
2022-09-16T05:14:28.398Z,99.9
2022-09-16T05:16:28.189Z,99.9
2022-09-16T05:22:30.768Z,99.9
2022-09-16T05:24:30.497Z,99.9
2022-09-16T05:26:30.246Z,99.9
2022-09-16T05:28:29.977Z,99.9
2022-09-16T05:30:29.724Z,99.9
2022-09-16T05:32:29.478Z,99.9
2022-09-16T05:34:29.343Z,99.9
2022-09-16T05:36:32.374Z,99.9
2022-09-16T05:38:32.126Z,99.9
2022-09-16T05:40:31.947Z,99.9
2022-09-16T05:42:31.620Z,99.9
2022-09-16T05:44:31.352Z,99.9
2022-09-16T05:46:31.186Z,99.9
2022-09-16T05:48:30.887Z,99.9
2022-09-16T05:50:33.998Z,99.9
2022-09-16T05:52:33.767Z,99.9
2022-09-16T05:55:35.068Z,99.9
2022-09-16T05:57:34.805Z,99.9
2022-09-16T05:59:34.558Z,99.9
2022-09-16T06:01:34.447Z,99.9
2022-09-16T06:03:37.558Z,99.9
2022-09-16T06:05:37.330Z,99.9
2022-09-16T06:07:37.102Z,99.9
2022-09-16T06:09:36.819Z,99.9
2022-09-16T06:11:36.600Z,99.9
2022-09-16T06:13:36.314Z,99.9
2022-09-16T06:15:36.159Z,99.9
2022-09-16T06:21:38.755Z,99.9
2022-09-16T06:25:38.237Z,99.9
2022-09-16T06:27:37.987Z,99.9
2022-09-16T06:29:37.752Z,99.9
2022-09-16T06:31:40.903Z,99.9
2022-09-16T06:33:40.645Z,99.9
2022-09-16T06:35:40.374Z,99.9
2022-09-16T06:37:40.149Z,99.9
2022-09-16T06:39:39.895Z,99.9
2022-09-16T06:41:39.653Z,99.9
2022-09-16T06:43:39.384Z,99.9
2022-09-16T06:45:42.585Z,99.9
2022-09-16T06:47:42.290Z,99.9
2022-09-16T06:49:42.039Z,99.9
2022-09-16T06:52:43.378Z,99.9
2022-09-16T06:54:43.122Z,99.9
2022-09-16T06:56:42.904Z,99.9
2022-09-16T06:58:46.021Z,99.9
2022-09-16T07:00:45.759Z,99.9
2022-09-16T07:02:45.612Z,99.9
2022-09-16T07:04:45.248Z,99.9
2022-09-16T07:07:08.234Z,99.9
2022-09-16T07:10:44.422Z,99.9
2022-09-16T07:12:47.525Z,99.9
2022-09-16T07:14:47.272Z,99.9
2022-09-16T07:16:47.042Z,99.9
2022-09-16T07:18:46.723Z,99.9
2022-09-16T07:24:45.887Z,99.9
2022-09-16T07:26:49.008Z,99.9
2022-09-16T07:28:48.721Z,99.9
2022-09-16T07:30:48.457Z,99.9
2022-09-16T07:32:48.148Z,99.9
2022-09-16T07:34:47.849Z,99.9
2022-09-16T07:36:47.541Z,99.9
2022-09-16T07:38:47.248Z,99.9
2022-09-16T07:40:50.331Z,99.9
2022-09-16T07:42:50.026Z,99.9
2022-09-16T07:44:49.748Z,99.9
2022-09-16T07:47:05.302Z,99.9
2022-09-16T07:49:04.996Z,99.9
2022-09-16T07:51:04.676Z,99.9
2022-09-16T07:53:07.798Z,99.9
2022-09-16T07:55:07.452Z,99.9
2022-09-16T07:57:07.167Z,99.9
2022-09-16T07:59:06.844Z,99.9
2022-09-16T08:01:06.522Z,99.9
2022-09-16T08:03:06.278Z,99.9
2022-09-16T08:05:05.855Z,99.9
2022-09-16T08:07:08.940Z,99.9
2022-09-16T08:09:34.278Z,99.9
2022-09-16T08:11:08.261Z,99.9
2022-09-16T08:13:07.951Z,99.9
2022-09-16T08:15:07.590Z,99.9
2022-09-16T08:19:06.917Z,99.9
2022-09-16T08:21:09.967Z,99.9
2022-09-16T08:23:09.616Z,99.9
2022-09-16T08:25:09.244Z,99.9
2022-09-16T08:27:08.849Z,99.9
2022-09-16T08:29:10.180Z,99.9
2022-09-16T08:31:08.140Z,99.9
2022-09-16T08:33:07.779Z,99.9
2022-09-16T08:35:10.805Z,99.9
2022-09-16T08:37:10.450Z,99.9
2022-09-16T08:39:10.072Z,99.9
2022-09-16T08:40:13.294Z,99.9
2022-09-16T08:42:12.717Z,99.9
2022-09-16T08:44:12.333Z,99.9
2022-09-16T08:46:11.994Z,99.9
2022-09-16T08:48:15.001Z,99.9
2022-09-16T08:50:14.638Z,99.9
2022-09-16T08:52:14.272Z,99.9
2022-09-16T08:54:13.878Z,99.9
2022-09-16T08:56:13.478Z,99.9
2022-09-16T09:00:12.715Z,99.9
2022-09-16T09:02:15.965Z,99.9
2022-09-16T09:04:15.334Z,99.9
2022-09-16T09:06:14.936Z,99.9
2022-09-16T09:08:14.567Z,99.9
2022-09-16T09:10:14.135Z,99.9
2022-09-16T09:12:14.999Z,99.9
2022-09-16T09:20:15.576Z,99.9
2022-09-16T09:22:15.214Z,99.9
2022-09-16T09:24:14.779Z,99.9
2022-09-16T09:28:13.975Z,99.9
2022-09-16T09:32:16.545Z,99.9
2022-09-16T09:34:16.136Z,93.2
2022-09-16T09:35:17.696Z,92.5
2022-09-16T09:37:17.244Z,90.5
2022-09-16T09:39:16.777Z,89
2022-09-16T09:51:17.345Z,73.1
2022-09-16T09:53:16.842Z,72.8
2022-09-16T09:55:16.638Z,71.7
2022-09-16T09:57:19.135Z,70
2022-09-16T09:59:19.729Z,69.8
2022-09-16T10:05:16.903Z,85.3
2022-09-16T10:07:16.396Z,93.7
2022-09-16T10:09:15.854Z,99.5
2022-09-16T10:11:18.755Z,99.7
2022-09-16T10:15:17.660Z,99.8
2022-09-16T10:17:17.159Z,99.8
2022-09-16T10:19:16.691Z,99.8
2022-09-16T10:21:16.214Z,99.6
2022-09-16T10:23:15.729Z,99.6
2022-09-16T10:27:18.235Z,93.9
2022-09-16T10:29:17.758Z,84.2
2022-09-16T10:30:19.314Z,74
2022-09-16T10:32:26.390Z,73.1
2022-09-16T10:34:18.253Z,72.8
2022-09-16T10:40:20.235Z,70.2
2022-09-16T10:42:19.483Z,69.1
2022-09-16T10:44:18.861Z,69.2
2022-09-16T10:54:18.637Z,76
2022-09-16T10:56:17.923Z,84.7
2022-09-16T11:02:16.079Z,85.8
2022-09-16T11:04:15.068Z,80.7
2022-09-16T11:06:17.694Z,80.4
2022-09-16T11:08:17.091Z,80
2022-09-16T11:10:16.550Z,79.7
2022-09-16T11:12:15.942Z,79.5
2022-09-16T11:14:15.382Z,79.4
2022-09-16T11:16:14.812Z,79.6
2022-09-16T11:18:14.135Z,80
2022-09-16T11:26:30.497Z,80
2022-09-16T11:28:29.916Z,79.9
2022-09-16T11:30:29.364Z,80.6
2022-09-16T11:32:32.277Z,76.4
2022-09-16T11:34:31.567Z,75.6
2022-09-16T11:36:30.987Z,71.6
2022-09-16T11:42:29.030Z,70.4
2022-09-16T11:44:28.412Z,70
2022-09-16T11:46:31.081Z,68.8
2022-09-16T11:48:30.271Z,67.5
2022-09-16T11:50:29.477Z,66.2
2022-09-16T11:52:29.101Z,66
2022-09-16T11:54:28.091Z,65.7
2022-09-16T11:56:27.788Z,65.4
2022-09-16T11:58:26.495Z,64.7
2022-09-16T12:02:28.334Z,62.1
2022-09-16T12:04:27.431Z,61.7
2022-09-16T12:06:26.628Z,61.1
2022-09-16T12:08:25.866Z,61.3
2022-09-16T12:10:25.027Z,61.2
2022-09-16T12:12:24.215Z,61.3
2022-09-16T12:14:26.841Z,60.8
2022-09-16T12:16:28.120Z,60.4
2022-09-16T12:25:23.917Z,56.8
2022-09-16T12:27:26.446Z,57.2
2022-09-16T12:29:25.618Z,57.2
2022-09-16T12:31:24.860Z,58.5
2022-09-16T12:33:23.978Z,60.5
2022-09-16T12:35:23.219Z,73.3
2022-09-16T12:37:22.397Z,87.3
2022-09-16T12:39:21.593Z,86.5
2022-09-16T12:41:24.304Z,86.1
2022-09-16T12:43:23.688Z,86.9
2022-09-16T12:45:23.078Z,83.7
2022-09-16T12:47:22.447Z,82.3
2022-09-16T12:49:21.787Z,80.2
2022-09-16T12:51:21.159Z,79.9
2022-09-16T12:53:20.592Z,78.4
2022-09-16T12:55:23.359Z,74.3
2022-09-16T12:57:22.838Z,73.3
2022-09-16T12:59:22.221Z,71.4
2022-09-16T13:01:21.678Z,80.8
2022-09-16T13:03:21.085Z,99.6
2022-09-16T13:05:20.464Z,99.8
2022-09-16T13:07:19.916Z,99.8
2022-09-16T13:14:23.137Z,89.9
2022-09-16T13:16:22.484Z,80.7
2022-09-16T13:18:21.860Z,79.4
2022-09-16T13:22:24.191Z,99.8
2022-09-16T13:24:23.607Z,99.8
2022-09-16T13:26:23.082Z,99.8
2022-09-16T13:28:22.512Z,99.8
2022-09-16T13:30:21.936Z,99.8
2022-09-16T13:32:21.403Z,99.9
2022-09-16T13:34:20.928Z,99.9
2022-09-16T13:44:21.873Z,99.9
2022-09-16T13:46:21.398Z,99.9
2022-09-16T13:48:20.876Z,99.6
2022-09-16T13:50:23.793Z,80.1
2022-09-16T13:56:22.397Z,70.6
2022-09-16T13:58:21.918Z,69.6
2022-09-16T14:00:21.446Z,70
2022-09-16T14:02:21.058Z,72
2022-09-16T14:04:23.895Z,78.4
2022-09-16T14:06:23.449Z,80.6
2022-09-16T14:08:22.968Z,99.6
2022-09-16T14:09:24.450Z,99.8
2022-09-16T14:11:23.999Z,99.8
2022-09-16T14:13:23.508Z,99.8
2022-09-16T14:15:23.041Z,99.8
2022-09-16T14:17:26.024Z,99.8
2022-09-16T14:19:25.566Z,99.9
2022-09-16T14:21:25.130Z,99.9
2022-09-16T14:23:24.681Z,99.9
2022-09-16T14:25:29.490Z,99.9
2022-09-16T14:27:25.361Z,89.9
2022-09-16T14:29:24.932Z,78.7
2022-09-16T14:31:27.951Z,70.2
2022-09-16T14:33:27.507Z,70.3
2022-09-16T14:35:27.080Z,70.3
2022-09-16T14:39:26.172Z,75.6
2022-09-16T14:41:25.729Z,94.5
2022-09-16T14:43:25.300Z,99.6
2022-09-16T14:45:28.271Z,99.8
2022-09-16T14:47:46.455Z,92.7
2022-09-16T14:57:25.613Z,70.2
2022-09-16T14:59:28.555Z,70.1
2022-09-16T15:01:28.170Z,78.2
2022-09-16T15:03:27.657Z,90.3
2022-09-16T15:05:49.111Z,96.7
2022-09-16T15:08:12.335Z,96.9
2022-09-16T15:09:48.142Z,98.1
2022-09-16T15:11:51.141Z,98.7
2022-09-16T15:13:50.653Z,99.2
2022-09-16T15:19:49.304Z,88.6
2022-09-16T15:21:48.860Z,81.9
2022-09-16T15:23:48.399Z,80.6
2022-09-16T15:25:51.378Z,87.6
2022-09-16T15:27:50.934Z,81.7
2022-09-16T15:31:50.045Z,70.2
2022-09-16T15:33:49.636Z,71.1
2022-09-16T15:45:50.395Z,79.7
2022-09-16T15:47:49.992Z,72.9
2022-09-16T15:49:49.540Z,71.2
2022-09-16T15:51:49.123Z,72.9
2022-09-16T15:53:52.128Z,73.2
2022-09-16T15:55:51.710Z,72.6
2022-09-16T15:57:51.283Z,72.3
2022-09-16T15:58:52.783Z,71.5
2022-09-16T16:00:52.345Z,71
2022-09-16T16:02:52.134Z,71
2022-09-16T16:04:51.508Z,70.7
2022-09-16T16:06:54.476Z,72.8
2022-09-16T16:08:54.029Z,81.3
2022-09-16T16:10:53.610Z,91.9
2022-09-16T16:12:53.195Z,99.6
2022-09-16T16:14:52.743Z,99.8
2022-09-16T16:17:11.720Z,99.8
2022-09-16T16:18:51.913Z,99.8
2022-09-16T16:20:54.913Z,99.8
2022-09-16T16:22:54.958Z,99.8
2022-09-16T16:24:54.108Z,99.9
2022-09-16T16:26:56.737Z,99.9
2022-09-16T16:28:53.317Z,99.9
2022-09-16T16:30:52.930Z,99.9
2022-09-16T16:32:52.492Z,99.9
2022-09-16T16:34:55.502Z,99.7
2022-09-16T16:36:55.097Z,98.8
2022-09-16T16:42:53.901Z,95.5
2022-09-16T16:46:53.103Z,94.6
2022-09-16T16:48:56.144Z,94.4
2022-09-16T16:50:55.729Z,94.5
2022-09-16T16:52:55.344Z,94.6
2022-09-16T16:53:56.948Z,94.9
2022-09-16T16:55:56.455Z,95.3
2022-09-16T16:57:56.070Z,96.1
2022-09-16T16:59:55.819Z,97.4
2022-09-16T17:01:58.822Z,98.5
2022-09-16T17:03:58.326Z,98.8
2022-09-16T17:05:57.937Z,99.2
2022-09-16T17:07:57.572Z,99.3
2022-09-16T17:09:57.189Z,99.6
2022-09-16T17:11:56.823Z,99.6
2022-09-16T17:13:56.419Z,99.8
2022-09-16T17:15:59.525Z,99.9
2022-09-16T17:21:58.300Z,99.9
2022-09-16T17:23:57.925Z,99.9
2022-09-16T17:25:57.535Z,99.9
2022-09-16T17:27:57.176Z,99.9
2022-09-16T17:30:00.241Z,99.9
2022-09-16T17:31:59.856Z,99.9
2022-09-16T17:33:59.575Z,99.9
2022-09-16T17:35:59.119Z,99.9
2022-09-16T17:37:58.761Z,99.9
2022-09-16T17:39:58.488Z,99.9
2022-09-16T17:41:58.034Z,99.9
2022-09-16T17:44:01.108Z,99.9
2022-09-16T17:46:00.789Z,99.9
2022-09-16T17:48:00.415Z,99.9
2022-09-16T17:53:01.231Z,99.9
2022-09-16T17:55:00.930Z,99.9
2022-09-16T17:57:04.001Z,99.9
2022-09-16T17:59:03.646Z,99.9
2022-09-16T18:01:03.326Z,99.9
2022-09-16T18:03:03.051Z,99.9
2022-09-16T18:05:02.710Z,99.9
2022-09-16T18:07:02.334Z,99.9
2022-09-16T18:09:02.016Z,99.9
2022-09-16T18:11:05.092Z,99.9
2022-09-16T18:13:04.745Z,99.9
2022-09-16T18:15:04.421Z,99.9
2022-09-16T18:17:04.150Z,99.9
2022-09-16T18:19:03.775Z,99.9
2022-09-16T18:21:03.426Z,99.9
2022-09-16T18:23:03.117Z,99.9
2022-09-16T18:25:06.168Z,99.9
2022-09-16T18:27:05.832Z,99.9
2022-09-16T18:29:10.145Z,99.9
2022-09-16T18:31:05.170Z,99.9
2022-09-16T18:33:04.771Z,99.9
2022-09-16T18:39:07.186Z,99.9
2022-09-16T18:41:06.847Z,99.9
2022-09-16T18:45:28.340Z,99.9
2022-09-16T18:47:27.971Z,99.9
2022-09-16T18:49:27.609Z,99.9
2022-09-16T18:51:30.681Z,99.9
2022-09-16T18:53:30.360Z,99.9
2022-09-16T18:55:30.021Z,99.9
2022-09-16T18:57:29.674Z,99.9
2022-09-16T18:59:29.369Z,99.9
2022-09-16T19:01:29.093Z,99.9
2022-09-16T19:03:28.655Z,99.9
2022-09-16T19:05:31.731Z,99.9
2022-09-16T19:07:31.412Z,99.9
2022-09-16T19:09:31.059Z,99.9
2022-09-16T19:11:30.719Z,99.9
2022-09-16T19:13:30.407Z,99.9
2022-09-16T19:17:29.805Z,99.9
2022-09-16T19:19:32.814Z,99.9
2022-09-16T19:21:32.494Z,99.9
2022-09-16T19:23:32.173Z,99.9
2022-09-16T19:25:31.839Z,99.9
2022-09-16T19:27:31.540Z,99.9
2022-09-16T19:29:31.206Z,99.9
2022-09-16T19:31:30.921Z,99.9
2022-09-16T19:33:34.032Z,99.9
2022-09-16T19:35:33.684Z,99.9
2022-09-16T19:37:33.343Z,99.9
2022-09-16T19:38:34.873Z,99.9
2022-09-16T19:42:34.263Z,99.9
2022-09-16T19:44:33.959Z,99.9
2022-09-16T19:46:37.063Z,99.9
2022-09-16T19:48:36.750Z,99.9
2022-09-16T19:50:36.449Z,99.9
2022-09-16T19:52:36.138Z,99.9
2022-09-16T19:54:35.851Z,99.9
2022-09-16T19:56:35.526Z,99.9
2022-09-16T19:58:35.242Z,99.9
2022-09-16T20:00:55.330Z,99.9
2022-09-16T20:02:38.116Z,99.9
2022-09-16T20:04:37.759Z,99.9
2022-09-16T20:06:37.471Z,99.9
2022-09-16T20:08:37.189Z,99.9
2022-09-16T20:10:38.470Z,99.9
2022-09-16T20:12:38.122Z,99.9
2022-09-16T20:14:41.234Z,99.9
2022-09-16T20:22:40.080Z,99.9
2022-09-16T20:24:39.799Z,99.9
2022-09-16T20:26:39.506Z,99.9
2022-09-16T20:28:42.654Z,99.9
2022-09-16T20:30:42.381Z,99.9
2022-09-16T20:32:42.082Z,99.9
2022-09-16T20:33:43.654Z,99.9
2022-09-16T20:43:45.657Z,99.9
2022-09-16T20:45:45.436Z,99.9
2022-09-16T20:47:45.111Z,99.9
2022-09-16T20:49:44.839Z,99.9
2022-09-16T20:51:44.564Z,99.9
2022-09-16T20:53:44.320Z,99.9
2022-09-16T20:55:47.442Z,99.9
2022-09-16T20:57:47.171Z,99.9
2022-09-16T20:59:46.898Z,99.9
2022-09-16T21:01:46.613Z,99.9
2022-09-16T21:03:46.353Z,99.9
2022-09-16T21:05:46.072Z,99.9
2022-09-16T21:07:45.818Z,99.9
2022-09-16T21:09:51.313Z,99.9
2022-09-16T21:13:48.357Z,99.9
2022-09-16T21:15:48.099Z,99.9
2022-09-16T21:17:47.831Z,99.9
2022-09-16T21:19:47.523Z,99.9
2022-09-16T21:21:47.278Z,99.9
2022-09-16T21:23:50.432Z,99.9
2022-09-16T21:25:50.112Z,99.9
2022-09-16T21:28:51.398Z,99.9
2022-09-16T21:30:51.123Z,99.9
2022-09-16T21:32:50.863Z,99.9
2022-09-16T21:34:50.551Z,99.9
2022-09-16T21:36:53.709Z,99.9
2022-09-16T21:38:53.389Z,99.9
2022-09-16T21:42:52.818Z,99.9
2022-09-16T21:44:52.561Z,99.9
2022-09-16T21:46:52.332Z,99.9
2022-09-16T21:48:52.004Z,99.9
2022-09-16T21:50:55.097Z,99.9
2022-09-16T21:52:54.828Z,99.9
2022-09-16T21:54:54.571Z,99.9
2022-09-16T21:56:54.284Z,99.9
2022-09-16T22:00:53.791Z,99.9
2022-09-16T22:02:53.484Z,99.9
2022-09-16T22:04:56.625Z,99.9
2022-09-16T22:06:56.350Z,99.9
2022-09-16T22:08:56.075Z,99.9
2022-09-16T22:10:55.816Z,99.9
2022-09-16T22:12:55.556Z,99.9
2022-09-16T22:14:55.253Z,99.9
2022-09-16T22:16:54.979Z,99.9
2022-09-16T22:18:58.146Z,99.9
2022-09-16T22:20:57.855Z,99.9
2022-09-16T22:22:57.580Z,99.9
2022-09-16T22:25:23.113Z,99.9
2022-09-16T22:29:22.567Z,99.9
2022-09-16T22:33:25.422Z,99.9
2022-09-16T22:35:25.156Z,99.9
2022-09-16T22:37:24.879Z,99.9
2022-09-16T22:39:24.607Z,99.9
2022-09-16T22:41:24.325Z,99.9
2022-09-16T22:43:24.041Z,99.9
2022-09-16T22:47:26.882Z,99.9
2022-09-16T22:49:26.666Z,99.9
2022-09-16T22:51:26.351Z,99.9
2022-09-16T22:53:26.077Z,99.9
2022-09-16T22:55:25.791Z,99.9
2022-09-16T22:57:25.515Z,99.9
2022-09-16T22:59:28.653Z,99.9
2022-09-16T23:01:28.406Z,99.9
2022-09-16T23:03:28.147Z,99.9
2022-09-16T23:05:27.816Z,99.9
2022-09-16T23:07:27.537Z,99.9
2022-09-16T23:09:27.272Z,99.9
2022-09-16T23:11:26.986Z,99.9
2022-09-16T23:13:30.122Z,99.9
2022-09-16T23:15:29.849Z,99.9
2022-09-16T23:17:29.600Z,99.9
2022-09-16T23:18:31.175Z,99.9
2022-09-16T23:20:30.913Z,99.9
2022-09-16T23:22:30.629Z,99.9
2022-09-16T23:24:30.358Z,99.9
2022-09-16T23:26:33.489Z,99.9
2022-09-16T23:28:33.225Z,99.9
2022-09-16T23:30:32.994Z,99.9
2022-09-16T23:33:27.573Z,99.9
2022-09-16T23:34:32.448Z,99.9
2022-09-16T23:36:34.478Z,99.9
2022-09-16T23:38:31.901Z,99.9
2022-09-16T23:40:35.094Z,99.9
2022-09-16T23:42:34.798Z,99.9
2022-09-16T23:44:34.548Z,99.9
2022-09-16T23:46:34.497Z,99.9
2022-09-16T23:48:34.109Z,99.9
2022-09-16T23:50:33.780Z,99.9
2022-09-16T23:52:33.529Z,99.9
2022-09-16T23:54:36.688Z,99.9
2022-09-16T23:56:36.403Z,99.9
2022-09-16T23:58:36.177Z,99.9
